createdAt,value
2022-09-16T00:00:48.473Z,4.60
2022-09-16T00:01:50.516Z,5.07
2022-09-16T00:02:53.866Z,4.70
2022-09-16T00:03:56.771Z,4.93
2022-09-16T00:04:59.992Z,5.07
2022-09-16T00:06:03.515Z,6.35
2022-09-16T00:07:06.478Z,5.28
2022-09-16T00:08:08.437Z,5.15
2022-09-16T00:09:11.473Z,5.25
2022-09-16T00:10:14.051Z,5.35
2022-09-16T00:11:17.687Z,5.18
2022-09-16T00:12:19.630Z,5.32
2022-09-16T00:13:22.563Z,5.63
2022-09-16T00:14:24.479Z,4.85
2022-09-16T00:15:27.409Z,5.72
2022-09-16T00:16:29.897Z,5.45
2022-09-16T00:17:34.598Z,6.78
2022-09-16T00:18:36.591Z,5.40
2022-09-16T00:19:39.523Z,6.00
2022-09-16T00:20:45.512Z,5.50
2022-09-16T00:21:50.184Z,5.28
2022-09-16T00:22:52.107Z,6.00
2022-09-16T00:23:56.198Z,5.80
2022-09-16T00:24:58.124Z,6.18
2022-09-16T00:26:02.048Z,5.82
2022-09-16T00:27:04.247Z,5.55
2022-09-16T00:28:07.181Z,5.43
2022-09-16T00:29:09.677Z,5.25
2022-09-16T00:30:13.056Z,6.00
2022-09-16T00:31:15.311Z,6.13
2022-09-16T00:32:18.279Z,5.82
2022-09-16T00:33:20.622Z,5.90
2022-09-16T00:34:23.835Z,6.03
2022-09-16T00:35:25.887Z,6.97
2022-09-16T00:36:30.305Z,5.90
2022-09-16T00:37:34.128Z,6.63
2022-09-16T00:38:37.224Z,6.05
2022-09-16T00:39:40.166Z,6.50
2022-09-16T00:40:45.969Z,6.32
2022-09-16T00:41:48.906Z,6.15
2022-09-16T00:42:50.824Z,6.38
2022-09-16T00:43:56.886Z,6.25
2022-09-16T00:45:02.099Z,6.78
2022-09-16T00:46:06.304Z,6.43
2022-09-16T00:47:08.333Z,7.30
2022-09-16T00:48:16.134Z,6.80
2022-09-16T00:49:22.228Z,5.95
2022-09-16T00:50:32.396Z,6.90
2022-09-16T00:51:34.581Z,6.53
2022-09-16T00:52:39.838Z,7.13
2022-09-16T00:53:45.806Z,6.38
2022-09-16T00:54:48.812Z,7.75
2022-09-16T00:55:53.113Z,6.05
2022-09-16T00:56:58.791Z,7.28
2022-09-16T00:58:07.504Z,7.28
2022-09-16T00:59:15.124Z,7.78
2022-09-16T01:00:17.786Z,6.93
2022-09-16T01:01:22.100Z,7.53
2022-09-16T01:02:24.913Z,6.90
2022-09-16T01:03:30.940Z,6.78
2022-09-16T01:04:39.481Z,7.25
2022-09-16T01:05:43.714Z,6.28
2022-09-16T01:06:46.142Z,6.57
2022-09-16T01:07:52.923Z,7.25
2022-09-16T01:08:56.834Z,7.32
2022-09-16T01:10:00.065Z,7.30
2022-09-16T01:11:02.135Z,7.93
2022-09-16T01:12:05.302Z,6.82
2022-09-16T01:13:10.328Z,7.35
2022-09-16T01:14:32.193Z,6.20
2022-09-16T01:15:42.215Z,7.72
2022-09-16T01:16:50.247Z,7.53
2022-09-16T01:18:14.817Z,6.82
2022-09-16T01:19:41.029Z,6.95
2022-09-16T01:21:12.754Z,7.75
2022-09-16T01:22:30.182Z,6.72
2022-09-16T01:24:04.149Z,6.20
2022-09-16T01:25:21.948Z,7.05
2022-09-16T01:26:57.702Z,6.72
2022-09-16T01:28:30.362Z,6.90
2022-09-16T01:30:06.557Z,8.55
2022-09-16T01:31:16.441Z,7.30
2022-09-16T01:32:27.625Z,7.70
2022-09-16T01:33:41.344Z,7.75
2022-09-16T01:34:50.872Z,6.90
2022-09-16T01:36:07.247Z,6.78
2022-09-16T01:37:15.328Z,7.80
2022-09-16T01:38:35.324Z,7.90
2022-09-16T01:39:44.095Z,7.45
2022-09-16T01:40:54.264Z,5.90
2022-09-16T01:42:15.976Z,7.00
2022-09-16T01:43:22.465Z,7.82
2022-09-16T01:44:32.576Z,7.70
2022-09-16T01:45:39.714Z,8.15
2022-09-16T01:46:47.778Z,7.70
2022-09-16T01:47:56.767Z,6.70
2022-09-16T01:49:02.711Z,6.72
2022-09-16T01:50:13.707Z,6.82
2022-09-16T01:51:21.517Z,7.20
2022-09-16T01:52:30.333Z,6.80
2022-09-16T01:53:37.370Z,6.63
2022-09-16T01:54:44.090Z,6.05
2022-09-16T01:55:51.338Z,6.47
2022-09-16T01:57:01.782Z,6.88
2022-09-16T01:58:09.624Z,7.13
2022-09-16T01:59:19.091Z,6.65
2022-09-16T02:00:21.717Z,7.35
2022-09-16T02:01:32.338Z,6.20
2022-09-16T02:02:39.465Z,6.38
2022-09-16T02:03:46.974Z,6.40
2022-09-16T02:04:54.138Z,7.07
2022-09-16T02:06:00.650Z,7.25
2022-09-16T02:07:05.807Z,6.28
2022-09-16T02:08:12.840Z,7.35
2022-09-16T02:09:19.894Z,6.20
2022-09-16T02:10:25.821Z,6.70
2022-09-16T02:11:27.821Z,8.25
2022-09-16T02:12:34.861Z,6.78
2022-09-16T02:13:42.145Z,6.20
2022-09-16T02:14:46.005Z,6.32
2022-09-16T02:15:53.189Z,6.60
2022-09-16T02:16:59.318Z,6.65
2022-09-16T02:18:07.593Z,6.00
2022-09-16T02:19:13.717Z,6.60
2022-09-16T02:20:22.367Z,6.40
2022-09-16T02:21:27.624Z,7.22
2022-09-16T02:22:33.890Z,6.65
2022-09-16T02:23:40.901Z,6.85
2022-09-16T02:24:46.502Z,6.90
2022-09-16T02:25:50.182Z,6.70
2022-09-16T02:26:56.808Z,6.60
2022-09-16T02:28:01.356Z,5.82
2022-09-16T02:29:09.737Z,6.07
2022-09-16T02:30:16.470Z,6.00
2022-09-16T02:31:24.616Z,7.18
2022-09-16T02:32:29.047Z,6.10
2022-09-16T02:33:37.848Z,6.13
2022-09-16T02:34:43.521Z,6.90
2022-09-16T02:35:49.459Z,6.45
2022-09-16T02:36:56.509Z,6.85
2022-09-16T02:38:02.725Z,6.45
2022-09-16T02:39:09.256Z,7.53
2022-09-16T02:40:17.256Z,6.18
2022-09-16T02:41:19.698Z,8.07
2022-09-16T02:42:22.841Z,7.30
2022-09-16T02:43:25.997Z,6.75
2022-09-16T02:44:29.109Z,6.82
2022-09-16T02:45:42.414Z,7.28
2022-09-16T02:46:57.455Z,6.32
2022-09-16T02:48:05.007Z,5.35
2022-09-16T02:49:15.768Z,6.85
2022-09-16T02:50:25.236Z,5.43
2022-09-16T02:51:35.941Z,6.25
2022-09-16T02:52:44.100Z,6.82
2022-09-16T02:53:53.024Z,6.70
2022-09-16T02:55:03.165Z,7.07
2022-09-16T02:56:14.545Z,7.30
2022-09-16T02:57:17.849Z,6.82
2022-09-16T02:58:19.941Z,6.95
2022-09-16T02:59:25.251Z,6.53
2022-09-16T03:00:28.806Z,6.75
2022-09-16T03:01:34.252Z,6.68
2022-09-16T03:02:36.493Z,6.82
2022-09-16T03:03:39.527Z,6.32
2022-09-16T03:04:42.788Z,7.38
2022-09-16T03:06:08.185Z,7.00
2022-09-16T03:07:12.765Z,8.48
2022-09-16T03:08:14.689Z,7.20
2022-09-16T03:09:19.109Z,6.97
2022-09-16T03:10:23.553Z,6.60
2022-09-16T03:11:40.342Z,7.15
2022-09-16T03:12:58.806Z,7.70
2022-09-16T03:14:14.305Z,7.25
2022-09-16T03:15:29.755Z,6.88
2022-09-16T03:16:42.677Z,8.38
2022-09-16T03:18:03.436Z,6.90
2022-09-16T03:19:18.640Z,7.82
2022-09-16T03:20:30.614Z,7.90
2022-09-16T03:21:40.974Z,7.50
2022-09-16T03:22:49.829Z,7.40
2022-09-16T03:24:03.121Z,7.13
2022-09-16T03:25:16.422Z,7.45
2022-09-16T03:26:33.324Z,7.38
2022-09-16T03:27:41.106Z,8.13
2022-09-16T03:28:54.759Z,7.40
2022-09-16T03:30:02.279Z,6.90
2022-09-16T03:31:08.269Z,7.15
2022-09-16T03:32:17.679Z,6.80
2022-09-16T03:33:27.934Z,7.72
2022-09-16T03:34:34.367Z,6.90
2022-09-16T03:35:44.118Z,7.82
2022-09-16T03:36:52.668Z,7.00
2022-09-16T03:37:55.941Z,7.10
2022-09-16T03:39:01.432Z,7.55
2022-09-16T03:40:08.197Z,7.18
2022-09-16T03:41:12.413Z,7.97
2022-09-16T03:42:14.348Z,6.30
2022-09-16T03:43:18.282Z,7.63
2022-09-16T03:44:20.209Z,8.15
2022-09-16T03:45:23.622Z,8.73
2022-09-16T03:46:28.730Z,8.13
2022-09-16T03:47:31.710Z,8.73
2022-09-16T03:48:33.652Z,9.30
2022-09-16T03:49:37.438Z,9.43
2022-09-16T03:50:41.465Z,10.13
2022-09-16T03:51:44.374Z,9.27
2022-09-16T03:52:46.394Z,10.20
2022-09-16T03:53:49.318Z,8.90
2022-09-16T03:54:51.272Z,9.35
2022-09-16T03:55:54.232Z,9.75
2022-09-16T03:56:56.126Z,9.25
2022-09-16T03:57:59.035Z,8.73
2022-09-16T03:59:02.277Z,8.73
2022-09-16T04:00:05.137Z,10.05
2022-09-16T04:01:08.407Z,8.60
2022-09-16T04:02:10.377Z,9.18
2022-09-16T04:03:13.293Z,10.15
2022-09-16T04:04:15.715Z,9.20
2022-09-16T04:05:18.729Z,9.20
2022-09-16T04:06:21.999Z,10.48
2022-09-16T04:07:24.930Z,9.13
2022-09-16T04:08:26.838Z,8.73
2022-09-16T04:09:29.906Z,10.15
2022-09-16T04:10:34.796Z,8.73
2022-09-16T04:11:36.777Z,9.10
2022-09-16T04:12:39.698Z,8.35
2022-09-16T04:13:41.954Z,8.68
2022-09-16T04:14:44.861Z,8.98
2022-09-16T04:15:46.882Z,9.13
2022-09-16T04:16:49.870Z,9.43
2022-09-16T04:17:51.831Z,8.73
2022-09-16T04:18:55.537Z,9.63
2022-09-16T04:19:57.450Z,8.98
2022-09-16T04:21:01.531Z,9.45
2022-09-16T04:22:04.834Z,9.05
2022-09-16T04:23:07.741Z,9.32
2022-09-16T04:24:13.090Z,7.70
2022-09-16T04:25:16.466Z,8.35
2022-09-16T04:26:18.656Z,9.18
2022-09-16T04:27:21.898Z,9.70
2022-09-16T04:28:23.941Z,9.55
2022-09-16T04:29:26.965Z,8.70
2022-09-16T04:30:29.196Z,8.70
2022-09-16T04:31:32.108Z,10.05
2022-09-16T04:32:34.339Z,9.38
2022-09-16T04:33:37.494Z,9.43
2022-09-16T04:34:39.438Z,8.57
2022-09-16T04:35:42.385Z,8.40
2022-09-16T04:36:44.321Z,9.65
2022-09-16T04:37:48.667Z,9.60
2022-09-16T04:38:50.635Z,8.80
2022-09-16T04:39:53.644Z,9.57
2022-09-16T04:41:01.032Z,8.45
2022-09-16T04:42:05.379Z,10.02
2022-09-16T04:43:07.301Z,10.93
2022-09-16T04:44:12.099Z,9.93
2022-09-16T04:45:14.055Z,9.43
2022-09-16T04:46:17.306Z,9.80
2022-09-16T04:47:19.309Z,10.40
2022-09-16T04:48:22.233Z,9.43
2022-09-16T04:49:25.491Z,9.60
2022-09-16T04:50:27.729Z,9.23
2022-09-16T04:51:33.517Z,9.93
2022-09-16T04:52:35.586Z,8.30
2022-09-16T04:53:41.301Z,10.07
2022-09-16T04:54:44.274Z,9.80
2022-09-16T04:55:46.746Z,9.93
2022-09-16T04:56:49.692Z,8.00
2022-09-16T04:57:52.444Z,9.48
2022-09-16T04:58:57.369Z,9.32
2022-09-16T04:59:59.401Z,9.48
2022-09-16T05:01:07.580Z,9.50
2022-09-16T05:02:10.553Z,9.50
2022-09-16T05:03:12.478Z,9.75
2022-09-16T05:04:15.425Z,9.27
2022-09-16T05:05:17.337Z,8.48
2022-09-16T05:06:22.289Z,8.45
2022-09-16T05:07:24.202Z,9.02
2022-09-16T05:08:27.189Z,8.30
2022-09-16T05:09:31.530Z,8.02
2022-09-16T05:10:33.984Z,7.82
2022-09-16T05:11:38.758Z,7.38
2022-09-16T05:12:41.021Z,8.63
2022-09-16T05:13:44.032Z,8.10
2022-09-16T05:14:46.767Z,7.53
2022-09-16T05:15:51.217Z,7.78
2022-09-16T05:16:53.791Z,7.38
2022-09-16T05:17:56.717Z,7.85
2022-09-16T05:19:00.085Z,8.63
2022-09-16T05:20:03.810Z,7.95
2022-09-16T05:21:07.675Z,8.32
2022-09-16T05:22:10.988Z,8.45
2022-09-16T05:23:12.933Z,7.13
2022-09-16T05:24:16.112Z,7.45
2022-09-16T05:25:21.941Z,7.20
2022-09-16T05:26:26.744Z,7.43
2022-09-16T05:27:31.324Z,8.10
2022-09-16T05:28:34.438Z,8.25
2022-09-16T05:29:36.349Z,8.00
2022-09-16T05:30:39.311Z,7.10
2022-09-16T05:31:42.911Z,7.70
2022-09-16T05:32:45.871Z,7.25
2022-09-16T05:33:54.910Z,7.47
2022-09-16T05:34:58.192Z,6.80
2022-09-16T05:36:04.710Z,6.93
2022-09-16T05:37:07.634Z,6.82
2022-09-16T05:38:10.026Z,7.45
2022-09-16T05:39:23.271Z,7.90
2022-09-16T05:40:27.840Z,7.15
2022-09-16T05:41:30.772Z,6.90
2022-09-16T05:42:33.770Z,7.05
2022-09-16T05:43:36.174Z,7.22
2022-09-16T05:44:39.402Z,8.68
2022-09-16T05:45:41.366Z,7.32
2022-09-16T05:46:44.527Z,7.72
2022-09-16T05:47:47.981Z,7.07
2022-09-16T05:48:51.565Z,7.55
2022-09-16T05:49:55.164Z,7.85
2022-09-16T05:50:59.046Z,7.60
2022-09-16T05:52:02.526Z,8.02
2022-09-16T05:53:04.425Z,8.30
2022-09-16T05:54:07.698Z,7.10
2022-09-16T05:55:09.844Z,7.20
2022-09-16T05:56:16.023Z,7.90
2022-09-16T05:57:18.953Z,7.20
2022-09-16T05:58:20.898Z,7.53
2022-09-16T05:59:24.561Z,6.43
2022-09-16T06:00:26.865Z,6.97
2022-09-16T06:01:31.491Z,6.85
2022-09-16T06:02:33.529Z,7.97
2022-09-16T06:03:38.549Z,7.53
2022-09-16T06:04:40.489Z,7.70
2022-09-16T06:05:45.809Z,7.45
2022-09-16T06:06:48.987Z,7.95
2022-09-16T06:07:50.910Z,8.15
2022-09-16T06:08:54.934Z,7.63
2022-09-16T06:09:56.830Z,7.57
2022-09-16T06:11:02.606Z,8.05
2022-09-16T06:12:07.304Z,7.03
2022-09-16T06:13:09.629Z,7.90
2022-09-16T06:14:14.016Z,6.57
2022-09-16T06:15:16.049Z,7.20
2022-09-16T06:16:19.137Z,7.32
2022-09-16T06:17:21.249Z,7.28
2022-09-16T06:18:26.489Z,6.88
2022-09-16T06:19:28.758Z,6.78
2022-09-16T06:20:31.698Z,6.75
2022-09-16T06:21:34.621Z,6.22
2022-09-16T06:22:36.562Z,7.13
2022-09-16T06:23:40.222Z,5.55
2022-09-16T06:24:43.130Z,7.40
2022-09-16T06:25:45.318Z,6.63
2022-09-16T06:26:49.378Z,7.13
2022-09-16T06:27:52.911Z,6.88
2022-09-16T06:28:56.501Z,7.40
2022-09-16T06:29:58.729Z,7.45
2022-09-16T06:31:07.399Z,6.60
2022-09-16T06:32:10.351Z,7.00
2022-09-16T06:33:12.848Z,7.05
2022-09-16T06:34:18.468Z,6.82
2022-09-16T06:35:20.969Z,5.90
2022-09-16T06:36:25.774Z,6.63
2022-09-16T06:37:27.703Z,6.47
2022-09-16T06:38:30.629Z,7.78
2022-09-16T06:39:33.590Z,6.47
2022-09-16T06:40:35.606Z,6.65
2022-09-16T06:41:38.526Z,6.80
2022-09-16T06:42:41.459Z,7.90
2022-09-16T06:43:45.234Z,6.63
2022-09-16T06:44:48.132Z,7.05
2022-09-16T06:45:50.103Z,7.47
2022-09-16T06:46:53.258Z,7.32
2022-09-16T06:47:59.976Z,7.78
2022-09-16T06:49:05.730Z,6.60
2022-09-16T06:50:10.217Z,6.80
2022-09-16T06:51:14.694Z,7.43
2022-09-16T06:52:17.663Z,7.60
2022-09-16T06:53:19.594Z,7.95
2022-09-16T06:54:22.508Z,7.72
2022-09-16T06:55:24.477Z,7.32
2022-09-16T06:56:27.575Z,6.65
2022-09-16T06:57:30.713Z,6.32
2022-09-16T06:58:35.238Z,7.13
2022-09-16T06:59:38.654Z,6.45
2022-09-16T07:00:43.134Z,6.18
2022-09-16T07:01:46.104Z,6.35
2022-09-16T07:02:48.216Z,7.00
2022-09-16T07:03:53.031Z,7.00
2022-09-16T07:04:55.161Z,6.30
2022-09-16T07:05:58.657Z,6.28
2022-09-16T07:07:10.293Z,6.70
2022-09-16T07:08:12.556Z,7.35
2022-09-16T07:09:15.557Z,6.53
2022-09-16T07:10:17.461Z,6.45
2022-09-16T07:11:21.780Z,6.15
2022-09-16T07:12:24.763Z,6.40
2022-09-16T07:13:27.237Z,6.80
2022-09-16T07:14:32.737Z,5.95
2022-09-16T07:15:46.265Z,7.03
2022-09-16T07:16:59.011Z,6.38
2022-09-16T07:18:00.955Z,6.50
2022-09-16T07:19:04.218Z,5.50
2022-09-16T07:20:08.354Z,6.68
2022-09-16T07:21:12.541Z,6.50
2022-09-16T07:22:15.469Z,5.95
2022-09-16T07:23:17.389Z,6.60
2022-09-16T07:24:20.570Z,6.40
2022-09-16T07:25:22.527Z,5.75
2022-09-16T07:26:27.434Z,6.28
2022-09-16T07:27:31.141Z,5.28
2022-09-16T07:28:34.645Z,5.75
2022-09-16T07:29:37.745Z,7.20
2022-09-16T07:30:41.115Z,5.90
2022-09-16T07:31:44.344Z,6.45
2022-09-16T07:32:46.248Z,6.07
2022-09-16T07:33:50.862Z,5.38
2022-09-16T07:34:53.925Z,5.55
2022-09-16T07:36:00.171Z,5.05
2022-09-16T07:37:03.093Z,5.18
2022-09-16T07:38:05.985Z,4.35
2022-09-16T07:39:09.117Z,4.30
2022-09-16T07:40:13.441Z,4.82
2022-09-16T07:41:19.738Z,5.65
2022-09-16T07:42:22.737Z,5.40
2022-09-16T07:43:24.675Z,5.00
2022-09-16T07:44:27.821Z,4.50
2022-09-16T07:45:29.909Z,4.80
2022-09-16T07:46:36.924Z,4.63
2022-09-16T07:47:39.835Z,5.00
2022-09-16T07:48:41.763Z,4.65
2022-09-16T07:49:44.677Z,4.82
2022-09-16T07:50:55.850Z,3.97
2022-09-16T07:51:58.755Z,4.25
2022-09-16T07:53:00.765Z,4.60
2022-09-16T07:54:06.709Z,4.45
2022-09-16T07:55:10.089Z,4.13
2022-09-16T07:56:14.662Z,3.92
2022-09-16T07:57:18.370Z,3.75
2022-09-16T07:58:20.648Z,3.83
2022-09-16T07:59:23.555Z,4.50
2022-09-16T08:00:26.886Z,4.20
2022-09-16T08:01:31.130Z,4.47
2022-09-16T08:02:34.654Z,3.42
2022-09-16T08:03:39.488Z,3.63
2022-09-16T08:04:42.454Z,3.78
2022-09-16T08:05:44.553Z,3.22
2022-09-16T08:06:47.629Z,3.60
2022-09-16T08:07:49.562Z,4.15
2022-09-16T08:08:53.655Z,3.83
2022-09-16T08:09:56.844Z,3.47
2022-09-16T08:11:01.022Z,3.40
2022-09-16T08:12:05.995Z,3.13
2022-09-16T08:13:08.873Z,3.22
2022-09-16T08:14:11.789Z,3.75
2022-09-16T08:15:14.898Z,3.53
2022-09-16T08:16:20.123Z,2.67
2022-09-16T08:17:23.077Z,3.42
2022-09-16T08:18:26.341Z,3.92
2022-09-16T08:19:29.353Z,2.97
2022-09-16T08:20:31.273Z,2.90
2022-09-16T08:21:34.198Z,2.30
2022-09-16T08:22:36.207Z,3.42
2022-09-16T08:23:40.021Z,3.50
2022-09-16T08:24:42.970Z,3.33
2022-09-16T08:25:45.496Z,3.38
2022-09-16T08:26:48.495Z,2.80
2022-09-16T08:27:54.069Z,2.55
2022-09-16T08:29:08.264Z,3.50
2022-09-16T08:30:12.640Z,3.20
2022-09-16T08:31:15.094Z,2.97
2022-09-16T08:32:18.081Z,3.28
2022-09-16T08:33:23.031Z,3.42
2022-09-16T08:34:27.397Z,2.65
2022-09-16T08:35:29.342Z,3.08
2022-09-16T08:36:33.179Z,2.85
2022-09-16T08:37:35.937Z,2.95
2022-09-16T08:38:38.879Z,2.72
2022-09-16T08:39:41.102Z,3.15
2022-09-16T08:40:46.853Z,2.92
2022-09-16T08:42:03.180Z,2.75
2022-09-16T08:43:17.029Z,2.45
2022-09-16T08:44:31.598Z,2.42
2022-09-16T08:45:43.825Z,2.30
2022-09-16T08:46:52.877Z,2.47
2022-09-16T08:48:16.017Z,2.55
2022-09-16T08:49:28.216Z,2.40
2022-09-16T08:50:37.616Z,2.80
2022-09-16T08:51:40.851Z,2.47
2022-09-16T08:52:44.167Z,2.60
2022-09-16T08:53:50.783Z,2.03
2022-09-16T08:54:57.469Z,2.00
2022-09-16T08:56:04.250Z,2.58
2022-09-16T08:57:11.689Z,2.00
2022-09-16T08:58:17.582Z,2.42
2022-09-16T08:59:26.505Z,2.10
2022-09-16T09:00:28.813Z,2.30
2022-09-16T09:01:42.891Z,1.98
2022-09-16T09:02:51.815Z,1.90
2022-09-16T09:03:55.250Z,2.42
2022-09-16T09:04:59.400Z,1.85
2022-09-16T09:06:06.441Z,2.63
2022-09-16T09:07:18.876Z,2.00
2022-09-16T09:08:35.161Z,2.15
2022-09-16T09:09:50.834Z,2.00
2022-09-16T09:10:57.781Z,2.28
2022-09-16T09:12:06.373Z,2.10
2022-09-16T09:13:16.322Z,2.10
2022-09-16T09:14:29.886Z,2.20
2022-09-16T09:15:40.436Z,2.13
2022-09-16T09:16:48.963Z,1.80
2022-09-16T09:17:59.826Z,1.70
2022-09-16T09:19:13.832Z,1.92
2022-09-16T09:20:28.465Z,1.70
2022-09-16T09:21:41.271Z,1.63
2022-09-16T09:23:02.645Z,1.30
2022-09-16T09:24:23.048Z,1.38
2022-09-16T09:25:32.497Z,1.70
2022-09-16T09:26:43.733Z,1.98
2022-09-16T09:27:59.964Z,1.50
2022-09-16T09:29:22.154Z,1.67
2022-09-16T09:30:26.109Z,1.27
2022-09-16T09:31:40.945Z,1.63
2022-09-16T09:32:59.117Z,1.42
2022-09-16T09:34:08.372Z,1.30
2022-09-16T09:35:24.860Z,1.30
2022-09-16T09:36:51.323Z,1.92
2022-09-16T09:38:13.135Z,1.50
2022-09-16T09:39:29.697Z,1.67
2022-09-16T09:40:36.827Z,1.30
2022-09-16T09:41:42.789Z,1.33
2022-09-16T09:42:51.585Z,1.45
2022-09-16T09:43:57.133Z,1.50
2022-09-16T09:45:04.812Z,1.70
2022-09-16T09:46:12.432Z,1.65
2022-09-16T09:47:20.158Z,1.23
2022-09-16T09:48:26.360Z,1.10
2022-09-16T09:49:31.628Z,1.15
2022-09-16T09:50:41.530Z,1.35
2022-09-16T09:51:51.626Z,1.17
2022-09-16T09:53:03.829Z,1.00
2022-09-16T09:54:29.654Z,1.20
2022-09-16T09:55:35.750Z,1.10
2022-09-16T09:56:44.478Z,1.58
2022-09-16T09:58:02.781Z,1.20
2022-09-16T09:59:28.948Z,1.35
2022-09-16T10:00:31.259Z,1.23
2022-09-16T10:01:34.158Z,1.40
2022-09-16T10:02:41.327Z,1.42
2022-09-16T10:03:46.542Z,1.13
2022-09-16T10:04:49.165Z,1.42
2022-09-16T10:05:52.336Z,1.05
2022-09-16T10:06:56.902Z,0.90
2022-09-16T10:08:03.207Z,1.00
2022-09-16T10:09:06.138Z,1.05
2022-09-16T10:10:17.825Z,1.13
2022-09-16T10:11:21.902Z,1.13
2022-09-16T10:12:30.417Z,1.40
2022-09-16T10:13:33.358Z,1.25
2022-09-16T10:14:37.895Z,1.02
2022-09-16T10:15:41.815Z,1.08
2022-09-16T10:16:48.242Z,1.25
2022-09-16T10:17:52.665Z,1.20
2022-09-16T10:18:59.875Z,1.05
2022-09-16T10:20:06.059Z,1.55
2022-09-16T10:21:12.727Z,1.25
2022-09-16T10:22:23.540Z,1.30
2022-09-16T10:23:30.064Z,1.30
2022-09-16T10:24:36.045Z,1.55
2022-09-16T10:25:38.224Z,1.30
2022-09-16T10:26:41.913Z,1.20
2022-09-16T10:27:56.155Z,1.10
2022-09-16T10:29:00.755Z,1.10
2022-09-16T10:30:12.947Z,1.25
2022-09-16T10:31:14.973Z,1.33
2022-09-16T10:32:20.458Z,1.50
2022-09-16T10:33:25.648Z,1.45
2022-09-16T10:34:33.346Z,1.33
2022-09-16T10:35:38.431Z,1.42
2022-09-16T10:36:40.419Z,2.03
2022-09-16T10:37:51.861Z,1.08
2022-09-16T10:39:02.274Z,1.63
2022-09-16T10:40:18.360Z,1.15
2022-09-16T10:41:26.260Z,1.25
2022-09-16T10:42:30.346Z,1.45
2022-09-16T10:43:32.393Z,1.77
2022-09-16T10:44:37.989Z,1.40
2022-09-16T10:45:47.108Z,1.10
2022-09-16T10:46:59.417Z,1.15
2022-09-16T10:48:07.142Z,1.40
2022-09-16T10:49:13.149Z,1.38
2022-09-16T10:50:17.990Z,1.05
2022-09-16T10:51:26.662Z,1.60
2022-09-16T10:52:31.577Z,1.30
2022-09-16T10:53:39.464Z,1.08
2022-09-16T10:54:46.401Z,1.27
2022-09-16T10:55:57.996Z,1.15
2022-09-16T10:57:00.904Z,1.23
2022-09-16T10:58:14.440Z,0.90
2022-09-16T10:59:16.354Z,1.50
2022-09-16T11:00:21.146Z,1.30
2022-09-16T11:01:36.883Z,1.25
2022-09-16T11:03:09.357Z,1.20
2022-09-16T11:04:33.990Z,1.00
2022-09-16T11:05:44.849Z,1.10
2022-09-16T11:07:01.252Z,1.25
2022-09-16T11:08:12.499Z,1.50
2022-09-16T11:09:23.338Z,1.50
2022-09-16T11:10:35.658Z,1.60
2022-09-16T11:11:54.396Z,1.40
2022-09-16T11:13:26.400Z,1.70
2022-09-16T11:14:39.893Z,1.30
2022-09-16T11:15:56.034Z,1.58
2022-09-16T11:17:15.578Z,1.20
2022-09-16T11:18:32.449Z,1.40
2022-09-16T11:19:47.906Z,1.30
2022-09-16T11:21:06.274Z,1.30
2022-09-16T11:22:18.009Z,1.75
2022-09-16T11:23:37.092Z,1.52
2022-09-16T11:25:00.079Z,1.70
2022-09-16T11:26:13.040Z,1.80
2022-09-16T11:27:28.740Z,1.50
2022-09-16T11:28:47.709Z,1.60
2022-09-16T11:30:03.559Z,2.00
2022-09-16T11:31:17.055Z,1.63
2022-09-16T11:32:29.563Z,1.40
2022-09-16T11:33:42.036Z,1.52
2022-09-16T11:35:00.421Z,1.65
2022-09-16T11:36:34.280Z,1.27
2022-09-16T11:37:43.716Z,1.10
2022-09-16T11:38:56.775Z,1.33
2022-09-16T11:40:16.613Z,1.40
2022-09-16T11:41:28.771Z,1.50
2022-09-16T11:42:34.041Z,1.40
2022-09-16T11:43:53.218Z,1.80
2022-09-16T11:45:04.936Z,1.38
2022-09-16T11:46:13.428Z,1.33
2022-09-16T11:47:32.065Z,1.13
2022-09-16T11:48:47.930Z,1.50
2022-09-16T11:50:17.965Z,1.50
2022-09-16T11:51:33.589Z,2.10
2022-09-16T11:53:03.183Z,1.80
2022-09-16T11:54:20.318Z,1.30
2022-09-16T11:55:39.410Z,1.75
2022-09-16T11:56:47.757Z,1.65
2022-09-16T11:57:54.740Z,1.40
2022-09-16T11:59:01.750Z,1.45
2022-09-16T12:00:06.729Z,1.33
2022-09-16T12:02:29.644Z,1.23
2022-09-16T12:03:38.366Z,1.40
2022-09-16T12:04:45.446Z,1.25
2022-09-16T12:05:54.502Z,1.15
2022-09-16T12:07:04.349Z,1.40
2022-09-16T12:08:13.524Z,1.15
2022-09-16T12:09:23.730Z,1.50
2022-09-16T12:10:31.070Z,1.60
2022-09-16T12:11:39.610Z,1.50
2022-09-16T12:12:48.071Z,1.60
2022-09-16T12:14:05.524Z,1.17
2022-09-16T12:15:18.757Z,1.27
2022-09-16T12:16:29.409Z,1.30
2022-09-16T12:17:37.909Z,1.70
2022-09-16T12:18:43.020Z,1.35
2022-09-16T12:19:51.297Z,1.73
2022-09-16T12:22:42.151Z,1.60
2022-09-16T12:23:48.810Z,1.15
2022-09-16T12:24:59.344Z,1.08
2022-09-16T12:26:09.462Z,1.30
2022-09-16T12:27:34.033Z,1.17
2022-09-16T12:28:42.933Z,1.30
2022-09-16T12:29:52.494Z,1.90
2022-09-16T12:31:09.165Z,1.40
2022-09-16T12:32:14.966Z,1.50
2022-09-16T12:33:22.798Z,1.30
2022-09-16T12:34:28.440Z,1.35
2022-09-16T12:35:35.502Z,1.80
2022-09-16T12:36:43.113Z,1.52
2022-09-16T12:37:49.650Z,1.67
2022-09-16T12:38:51.678Z,1.35
2022-09-16T12:39:54.746Z,1.80
2022-09-16T12:41:18.502Z,1.23
2022-09-16T12:42:52.837Z,1.50
2022-09-16T12:44:34.137Z,1.52
2022-09-16T12:46:04.857Z,1.13
2022-09-16T12:47:38.748Z,1.23
2022-09-16T12:49:09.690Z,1.20
2022-09-16T12:50:46.399Z,1.25
2022-09-16T12:52:13.287Z,1.70
2022-09-16T12:53:46.295Z,1.00
2022-09-16T12:55:15.814Z,1.40
2022-09-16T12:56:42.087Z,1.70
2022-09-16T12:58:03.353Z,1.40
2022-09-16T12:59:49.746Z,1.52
2022-09-16T13:01:05.010Z,1.50
2022-09-16T13:02:13.903Z,2.15
2022-09-16T13:03:20.025Z,1.15
2022-09-16T13:04:26.367Z,1.45
2022-09-16T13:05:33.126Z,1.35
2022-09-16T13:06:41.767Z,1.05
2022-09-16T13:07:48.528Z,1.42
2022-09-16T13:08:52.133Z,1.10
2022-09-16T13:10:07.002Z,1.52
2022-09-16T13:12:16.146Z,1.52
2022-09-16T13:12:51.925Z,1.02
2022-09-16T13:13:56.863Z,1.23
2022-09-16T13:15:02.573Z,1.40
2022-09-16T13:16:06.819Z,1.42
2022-09-16T13:17:12.458Z,1.02
2022-09-16T13:18:23.382Z,1.00
2022-09-16T13:19:36.943Z,0.90
2022-09-16T13:20:43.406Z,1.35
2022-09-16T13:21:47.085Z,1.27
2022-09-16T13:22:59.726Z,1.52
2022-09-16T13:24:06.056Z,1.05
2022-09-16T13:25:13.033Z,1.33
2022-09-16T13:26:15.073Z,1.13
2022-09-16T13:27:34.416Z,1.42
2022-09-16T13:28:41.654Z,1.30
2022-09-16T13:29:44.678Z,1.50
2022-09-16T13:30:47.719Z,1.10
2022-09-16T13:31:49.876Z,1.02
2022-09-16T13:33:03.656Z,0.88
2022-09-16T13:34:17.157Z,1.38
2022-09-16T13:35:36.444Z,1.10
2022-09-16T13:36:39.410Z,0.90
2022-09-16T13:37:41.341Z,1.30
2022-09-16T13:38:46.899Z,1.17
2022-09-16T13:39:50.399Z,1.10
2022-09-16T13:40:58.881Z,1.10
2022-09-16T13:42:18.009Z,2.00
2022-09-16T13:43:29.681Z,1.58
2022-09-16T13:44:43.385Z,1.17
2022-09-16T13:45:45.661Z,1.50
2022-09-16T13:46:48.602Z,1.73
2022-09-16T13:47:51.413Z,1.10
2022-09-16T13:48:58.546Z,1.23
2022-09-16T13:50:08.682Z,1.45
2022-09-16T13:51:17.542Z,1.55
2022-09-16T13:52:23.089Z,1.40
2022-09-16T13:53:30.033Z,1.60
2022-09-16T13:54:53.487Z,1.80
2022-09-16T13:56:21.418Z,1.40
2022-09-16T13:58:04.420Z,1.85
2022-09-16T13:59:20.730Z,1.25
2022-09-16T14:00:32.337Z,1.30
2022-09-16T14:01:58.778Z,1.30
2022-09-16T14:03:28.068Z,1.30
2022-09-16T14:04:46.633Z,1.02
2022-09-16T14:06:11.221Z,1.25
2022-09-16T14:07:23.563Z,1.45
2022-09-16T14:08:35.659Z,1.23
2022-09-16T14:09:51.485Z,1.25
2022-09-16T14:11:03.017Z,1.50
2022-09-16T14:12:13.569Z,1.20
2022-09-16T14:13:19.574Z,1.50
2022-09-16T14:15:52.339Z,1.35
2022-09-16T14:16:54.787Z,1.33
2022-09-16T14:18:02.045Z,1.40
2022-09-16T14:19:06.434Z,1.13
2022-09-16T14:20:18.686Z,1.05
2022-09-16T14:21:23.668Z,1.20
2022-09-16T14:22:27.986Z,1.50
2022-09-16T14:23:32.962Z,1.60
2022-09-16T14:24:36.675Z,1.40
2022-09-16T14:25:40.805Z,1.40
2022-09-16T14:26:51.865Z,1.50
2022-09-16T14:27:55.100Z,1.15
2022-09-16T14:29:02.959Z,1.42
2022-09-16T14:30:08.065Z,1.48
2022-09-16T14:31:16.926Z,1.40
2022-09-16T14:32:20.294Z,1.38
2022-09-16T14:33:26.862Z,1.50
2022-09-16T14:34:33.022Z,1.08
2022-09-16T14:35:36.000Z,1.75
2022-09-16T14:36:41.049Z,1.38
2022-09-16T14:37:45.133Z,1.30
2022-09-16T14:38:54.969Z,1.17
2022-09-16T14:40:04.782Z,1.17
2022-09-16T14:41:09.285Z,1.17
2022-09-16T14:42:18.635Z,2.22
2022-09-16T14:43:22.768Z,1.10
2022-09-16T14:44:28.705Z,1.35
2022-09-16T14:45:32.074Z,1.90
2022-09-16T14:46:42.053Z,2.00
2022-09-16T14:47:51.507Z,1.60
2022-09-16T14:48:55.088Z,1.50
2022-09-16T14:50:03.362Z,1.83
2022-09-16T14:51:13.603Z,1.73
2022-09-16T14:52:19.949Z,1.80
2022-09-16T14:53:35.428Z,1.73
2022-09-16T14:54:44.469Z,1.50
2022-09-16T14:55:50.655Z,1.85
2022-09-16T14:56:57.498Z,1.60
2022-09-16T14:58:01.694Z,1.40
2022-09-16T14:59:04.141Z,1.30
2022-09-16T15:00:11.813Z,1.75
2022-09-16T15:01:19.042Z,1.42
2022-09-16T15:02:26.345Z,1.48
2022-09-16T15:03:33.723Z,1.60
2022-09-16T15:04:40.726Z,2.03